sensor_id;sensor_type;location;lat;lon;timestamp;pressure;altitude;pressure_sealevel;temperature;humidity
61361;BME280;47232;47.506;18.936;2024-03-02T00:00:30;97670.99;;;10.63;74.11
61361;BME280;47232;47.506;18.936;2024-03-02T00:02:59;97668.23;;;10.60;74.14
61361;BME280;47232;47.506;18.936;2024-03-02T00:05:49;97673.64;;;10.56;74.11
61361;BME280;47232;47.506;18.936;2024-03-02T00:08:38;97682.42;;;10.54;74.27
61361;BME280;47232;47.506;18.936;2024-03-02T00:11:03;97680.48;;;10.52;74.41
61361;BME280;47232;47.506;18.936;2024-03-02T00:13:29;97675.90;;;10.54;74.40
61361;BME280;47232;47.506;18.936;2024-03-02T00:15:57;97670.60;;;10.51;74.33
61361;BME280;47232;47.506;18.936;2024-03-02T00:18:30;97666.48;;;10.46;74.38
61361;BME280;47232;47.506;18.936;2024-03-02T00:20:56;97663.23;;;10.43;74.45
61361;BME280;47232;47.506;18.936;2024-03-02T00:23:24;97658.25;;;10.40;74.38
61361;BME280;47232;47.506;18.936;2024-03-02T00:25:53;97652.77;;;10.31;74.54
61361;BME280;47232;47.506;18.936;2024-03-02T00:30:59;97649.68;;;10.24;74.60
61361;BME280;47232;47.506;18.936;2024-03-02T00:33:30;97651.41;;;10.23;74.60
61361;BME280;47232;47.506;18.936;2024-03-02T00:35:57;97651.14;;;10.20;74.70
61361;BME280;47232;47.506;18.936;2024-03-02T00:38:23;97649.27;;;10.19;74.70
61361;BME280;47232;47.506;18.936;2024-03-02T00:40:49;97650.87;;;10.19;74.54
61361;BME280;47232;47.506;18.936;2024-03-02T00:46:41;97654.55;;;10.21;74.36
61361;BME280;47232;47.506;18.936;2024-03-02T00:49:22;97655.19;;;10.21;74.26
61361;BME280;47232;47.506;18.936;2024-03-02T00:51:50;97657.55;;;10.19;74.14
61361;BME280;47232;47.506;18.936;2024-03-02T00:54:19;97658.69;;;10.18;74.16
61361;BME280;47232;47.506;18.936;2024-03-02T00:56:47;97653.87;;;10.17;74.08
61361;BME280;47232;47.506;18.936;2024-03-02T00:59:12;97651.98;;;10.14;74.19
61361;BME280;47232;47.506;18.936;2024-03-02T01:01:39;97651.55;;;10.13;74.25
61361;BME280;47232;47.506;18.936;2024-03-02T01:04:05;97652.95;;;10.11;74.30
61361;BME280;47232;47.506;18.936;2024-03-02T01:06:31;97659.02;;;10.12;74.33
61361;BME280;47232;47.506;18.936;2024-03-02T01:08:56;97658.11;;;10.10;74.24
61361;BME280;47232;47.506;18.936;2024-03-02T01:11:23;97653.56;;;10.06;74.46
61361;BME280;47232;47.506;18.936;2024-03-02T01:13:50;97653.98;;;10.00;74.52
61361;BME280;47232;47.506;18.936;2024-03-02T01:16:17;97651.77;;;9.97;74.76
61361;BME280;47232;47.506;18.936;2024-03-02T01:18:42;97651.24;;;9.96;74.98
61361;BME280;47232;47.506;18.936;2024-03-02T01:21:08;97652.77;;;9.94;75.12
61361;BME280;47232;47.506;18.936;2024-03-02T01:23:34;97651.98;;;9.93;75.32
61361;BME280;47232;47.506;18.936;2024-03-02T01:25:59;97647.45;;;9.93;75.45
61361;BME280;47232;47.506;18.936;2024-03-02T01:28:29;97639.99;;;9.89;75.55
61361;BME280;47232;47.506;18.936;2024-03-02T01:30:55;97637.02;;;9.86;75.76
61361;BME280;47232;47.506;18.936;2024-03-02T01:33:24;97641.26;;;9.82;75.79
61361;BME280;47232;47.506;18.936;2024-03-02T01:35:51;97637.48;;;9.83;75.97
61361;BME280;47232;47.506;18.936;2024-03-02T01:38:17;97635.44;;;9.85;75.99
61361;BME280;47232;47.506;18.936;2024-03-02T01:40:46;97630.59;;;9.86;75.93
61361;BME280;47232;47.506;18.936;2024-03-02T01:43:15;97627.30;;;9.89;75.91
61361;BME280;47232;47.506;18.936;2024-03-02T01:45:40;97627.55;;;9.88;75.78
61361;BME280;47232;47.506;18.936;2024-03-02T01:48:21;97616.71;;;9.87;75.75
61361;BME280;47232;47.506;18.936;2024-03-02T01:50:51;97616.61;;;9.87;75.68
61361;BME280;47232;47.506;18.936;2024-03-02T01:53:20;97613.48;;;9.86;75.61
61361;BME280;47232;47.506;18.936;2024-03-02T01:55:46;97611.95;;;9.87;75.69
61361;BME280;47232;47.506;18.936;2024-03-02T01:58:12;97611.63;;;9.89;75.66
61361;BME280;47232;47.506;18.936;2024-03-02T02:00:39;97614.11;;;9.90;75.57
61361;BME280;47232;47.506;18.936;2024-03-02T02:03:04;97610.58;;;9.90;75.50
61361;BME280;47232;47.506;18.936;2024-03-02T02:05:30;97612.65;;;9.87;75.42
61361;BME280;47232;47.506;18.936;2024-03-02T02:07:56;97624.27;;;9.86;75.43
61361;BME280;47232;47.506;18.936;2024-03-02T02:10:23;97627.66;;;9.84;75.54
61361;BME280;47232;47.506;18.936;2024-03-02T02:12:49;97626.55;;;9.81;75.43
61361;BME280;47232;47.506;18.936;2024-03-02T02:15:28;97632.13;;;9.81;75.49
61361;BME280;47232;47.506;18.936;2024-03-02T02:17:56;97634.81;;;9.80;75.52
61361;BME280;47232;47.506;18.936;2024-03-02T02:20:23;97641.36;;;9.81;75.59
61361;BME280;47232;47.506;18.936;2024-03-02T02:23:02;97646.04;;;9.81;75.47
61361;BME280;47232;47.506;18.936;2024-03-02T02:25:28;97650.36;;;9.74;75.59
61361;BME280;47232;47.506;18.936;2024-03-02T02:27:55;97653.95;;;9.71;75.76
61361;BME280;47232;47.506;18.936;2024-03-02T02:30:24;97653.42;;;9.72;75.79
61361;BME280;47232;47.506;18.936;2024-03-02T02:32:50;97655.21;;;9.72;75.92
61361;BME280;47232;47.506;18.936;2024-03-02T02:35:15;97658.11;;;9.74;75.93
61361;BME280;47232;47.506;18.936;2024-03-02T02:37:41;97660.36;;;9.73;75.71
61361;BME280;47232;47.506;18.936;2024-03-02T02:40:07;97658.66;;;9.72;75.85
61361;BME280;47232;47.506;18.936;2024-03-02T02:42:33;97666.02;;;9.74;75.89
61361;BME280;47232;47.506;18.936;2024-03-02T02:45:00;97663.73;;;9.76;75.75
61361;BME280;47232;47.506;18.936;2024-03-02T02:47:29;97660.00;;;9.79;75.69
61361;BME280;47232;47.506;18.936;2024-03-02T02:50:03;97657.20;;;9.81;75.50
61361;BME280;47232;47.506;18.936;2024-03-02T02:52:52;97654.52;;;9.81;75.27
61361;BME280;47232;47.506;18.936;2024-03-02T02:55:20;97656.26;;;9.82;75.31
61361;BME280;47232;47.506;18.936;2024-03-02T02:57:45;97651.22;;;9.82;75.22
61361;BME280;47232;47.506;18.936;2024-03-02T03:00:14;97649.33;;;9.80;75.07
61361;BME280;47232;47.506;18.936;2024-03-02T03:02:41;97649.81;;;9.79;75.04
61361;BME280;47232;47.506;18.936;2024-03-02T03:05:11;97650.73;;;9.77;75.02
61361;BME280;47232;47.506;18.936;2024-03-02T03:07:54;97647.36;;;9.76;75.00
61361;BME280;47232;47.506;18.936;2024-03-02T03:10:43;97646.86;;;9.73;74.87
61361;BME280;47232;47.506;18.936;2024-03-02T03:13:08;97651.42;;;9.72;75.00
61361;BME280;47232;47.506;18.936;2024-03-02T03:15:36;97651.46;;;9.71;74.88
61361;BME280;47232;47.506;18.936;2024-03-02T03:18:04;97653.30;;;9.69;74.85
61361;BME280;47232;47.506;18.936;2024-03-02T03:20:31;97653.83;;;9.69;74.85
61361;BME280;47232;47.506;18.936;2024-03-02T03:23:04;97659.59;;;9.67;74.89
61361;BME280;47232;47.506;18.936;2024-03-02T03:25:31;97669.99;;;9.66;74.85
61361;BME280;47232;47.506;18.936;2024-03-02T03:27:58;97673.35;;;9.66;74.80
61361;BME280;47232;47.506;18.936;2024-03-02T03:30:23;97667.34;;;9.67;74.87
61361;BME280;47232;47.506;18.936;2024-03-02T03:32:50;97666.02;;;9.69;74.91
61361;BME280;47232;47.506;18.936;2024-03-02T03:35:19;97662.55;;;9.70;74.81
61361;BME280;47232;47.506;18.936;2024-03-02T03:37:45;97660.59;;;9.71;74.45
61361;BME280;47232;47.506;18.936;2024-03-02T03:40:11;97658.95;;;9.70;74.32
61361;BME280;47232;47.506;18.936;2024-03-02T03:42:40;97659.11;;;9.68;74.24
61361;BME280;47232;47.506;18.936;2024-03-02T03:45:06;97662.56;;;9.68;74.12
61361;BME280;47232;47.506;18.936;2024-03-02T03:47:33;97660.14;;;9.67;73.84
61361;BME280;47232;47.506;18.936;2024-03-02T03:50:01;97664.47;;;9.64;73.71
61361;BME280;47232;47.506;18.936;2024-03-02T03:52:32;97667.05;;;9.61;73.62
61361;BME280;47232;47.506;18.936;2024-03-02T03:55:03;97667.05;;;9.58;73.59
61361;BME280;47232;47.506;18.936;2024-03-02T03:57:34;97670.34;;;9.56;73.61
61361;BME280;47232;47.506;18.936;2024-03-02T04:00:06;97672.33;;;9.54;73.61
61361;BME280;47232;47.506;18.936;2024-03-02T04:02:36;97672.55;;;9.53;73.66
61361;BME280;47232;47.506;18.936;2024-03-02T04:05:30;97673.19;;;9.54;73.60
61361;BME280;47232;47.506;18.936;2024-03-02T04:08:12;97674.89;;;9.53;73.66
61361;BME280;47232;47.506;18.936;2024-03-02T04:11:18;97677.30;;;9.48;73.75
61361;BME280;47232;47.506;18.936;2024-03-02T04:13:44;97675.83;;;9.44;73.86
61361;BME280;47232;47.506;18.936;2024-03-02T04:16:26;97680.45;;;9.41;74.14
61361;BME280;47232;47.506;18.936;2024-03-02T04:19:12;97684.65;;;9.39;74.34
61361;BME280;47232;47.506;18.936;2024-03-02T04:21:57;97685.11;;;9.37;74.47
61361;BME280;47232;47.506;18.936;2024-03-02T04:25:03;97694.62;;;9.37;74.78
61361;BME280;47232;47.506;18.936;2024-03-02T04:27:32;97690.29;;;9.36;74.77
61361;BME280;47232;47.506;18.936;2024-03-02T04:29:59;97692.40;;;9.35;74.93
61361;BME280;47232;47.506;18.936;2024-03-02T04:32:26;97690.54;;;9.36;75.01
61361;BME280;47232;47.506;18.936;2024-03-02T04:34:51;97691.64;;;9.37;75.15
61361;BME280;47232;47.506;18.936;2024-03-02T04:37:17;97691.23;;;9.34;75.06
61361;BME280;47232;47.506;18.936;2024-03-02T04:39:45;97692.02;;;9.30;75.30
61361;BME280;47232;47.506;18.936;2024-03-02T04:42:10;97691.20;;;9.27;75.45
61361;BME280;47232;47.506;18.936;2024-03-02T04:44:36;97696.73;;;9.25;75.59
61361;BME280;47232;47.506;18.936;2024-03-02T04:47:05;97695.76;;;9.22;75.60
61361;BME280;47232;47.506;18.936;2024-03-02T04:49:34;97692.57;;;9.20;75.85
61361;BME280;47232;47.506;18.936;2024-03-02T04:52:20;97697.94;;;9.16;76.07
61361;BME280;47232;47.506;18.936;2024-03-02T04:54:48;97702.36;;;9.12;76.23
61361;BME280;47232;47.506;18.936;2024-03-02T04:57:32;97702.16;;;9.11;76.55
61361;BME280;47232;47.506;18.936;2024-03-02T04:59:59;97697.48;;;9.11;76.67
61361;BME280;47232;47.506;18.936;2024-03-02T05:02:25;97698.66;;;9.10;76.90
61361;BME280;47232;47.506;18.936;2024-03-02T05:04:50;97703.94;;;9.06;77.17
61361;BME280;47232;47.506;18.936;2024-03-02T05:07:18;97701.52;;;9.05;77.39
61361;BME280;47232;47.506;18.936;2024-03-02T05:09:44;97701.95;;;9.06;77.58
61361;BME280;47232;47.506;18.936;2024-03-02T05:12:21;97700.25;;;9.07;77.66
61361;BME280;47232;47.506;18.936;2024-03-02T05:15:11;97696.27;;;9.11;77.87
61361;BME280;47232;47.506;18.936;2024-03-02T05:17:39;97702.20;;;9.15;77.82
61361;BME280;47232;47.506;18.936;2024-03-02T05:20:11;97703.63;;;9.18;78.02
61361;BME280;47232;47.506;18.936;2024-03-02T05:23:03;97703.03;;;9.17;78.20
61361;BME280;47232;47.506;18.936;2024-03-02T05:25:30;97700.63;;;9.16;78.35
61361;BME280;47232;47.506;18.936;2024-03-02T05:28:10;97702.36;;;9.14;78.62
61361;BME280;47232;47.506;18.936;2024-03-02T05:30:37;97706.14;;;9.18;78.71
61361;BME280;47232;47.506;18.936;2024-03-02T05:33:23;97704.77;;;9.19;78.94
61361;BME280;47232;47.506;18.936;2024-03-02T05:36:14;97698.96;;;9.22;79.02
61361;BME280;47232;47.506;18.936;2024-03-02T05:39:08;97703.76;;;9.24;79.13
61361;BME280;47232;47.506;18.936;2024-03-02T05:41:36;97705.59;;;9.27;79.14
61361;BME280;47232;47.506;18.936;2024-03-02T05:44:03;97702.77;;;9.30;79.14
61361;BME280;47232;47.506;18.936;2024-03-02T05:46:31;97700.52;;;9.31;79.23
61361;BME280;47232;47.506;18.936;2024-03-02T05:48:57;97698.85;;;9.31;79.15
61361;BME280;47232;47.506;18.936;2024-03-02T05:51:26;97699.35;;;9.30;79.27
61361;BME280;47232;47.506;18.936;2024-03-02T05:53:52;97697.88;;;9.32;79.36
61361;BME280;47232;47.506;18.936;2024-03-02T05:56:27;97695.80;;;9.31;79.41
61361;BME280;47232;47.506;18.936;2024-03-02T05:59:00;97698.41;;;9.32;79.58
61361;BME280;47232;47.506;18.936;2024-03-02T06:01:43;97700.64;;;9.34;79.64
61361;BME280;47232;47.506;18.936;2024-03-02T06:04:10;97709.80;;;9.34;79.66
61361;BME280;47232;47.506;18.936;2024-03-02T06:06:51;97711.74;;;9.37;79.70
61361;BME280;47232;47.506;18.936;2024-03-02T06:09:19;97716.30;;;9.39;79.75
61361;BME280;47232;47.506;18.936;2024-03-02T06:12:11;97722.11;;;9.39;79.98
61361;BME280;47232;47.506;18.936;2024-03-02T06:14:52;97724.12;;;9.39;79.96
61361;BME280;47232;47.506;18.936;2024-03-02T06:17:19;97731.14;;;9.38;79.96
61361;BME280;47232;47.506;18.936;2024-03-02T06:20:04;97740.86;;;9.41;80.18
61361;BME280;47232;47.506;18.936;2024-03-02T06:23:00;97740.66;;;9.42;80.01
61361;BME280;47232;47.506;18.936;2024-03-02T06:25:27;97734.81;;;9.41;79.82
61361;BME280;47232;47.506;18.936;2024-03-02T06:28:01;97733.58;;;9.41;79.86
61361;BME280;47232;47.506;18.936;2024-03-02T06:30:53;97736.97;;;9.43;79.80
61361;BME280;47232;47.506;18.936;2024-03-02T06:33:26;97733.80;;;9.41;79.71
61361;BME280;47232;47.506;18.936;2024-03-02T06:36:32;97739.05;;;9.38;79.97
61361;BME280;47232;47.506;18.936;2024-03-02T06:39:21;97740.23;;;9.33;79.85
61361;BME280;47232;47.506;18.936;2024-03-02T06:42:07;97743.61;;;9.31;80.12
61361;BME280;47232;47.506;18.936;2024-03-02T06:45:13;97744.40;;;9.32;80.39
61361;BME280;47232;47.506;18.936;2024-03-02T06:48:20;97747.87;;;9.32;80.60
61361;BME280;47232;47.506;18.936;2024-03-02T06:51:26;97742.59;;;9.37;80.83
61361;BME280;47232;47.506;18.936;2024-03-02T06:54:31;97742.30;;;9.39;80.86
61361;BME280;47232;47.506;18.936;2024-03-02T06:57:44;97744.40;;;9.39;80.75
61361;BME280;47232;47.506;18.936;2024-03-02T07:01:10;97746.23;;;9.44;81.04
61361;BME280;47232;47.506;18.936;2024-03-02T09:52:54;97792.06;;;9.86;83.29
61361;BME280;47232;47.506;18.936;2024-03-02T10:14:23;97788.79;;;9.90;83.12
61361;BME280;47232;47.506;18.936;2024-03-02T10:21:32;97785.91;;;10.01;83.27
61361;BME280;47232;47.506;18.936;2024-03-02T11:37:19;97757.41;;;10.48;83.00
61361;BME280;47232;47.506;18.936;2024-03-02T12:05:07;97751.30;;;10.34;81.94
61361;BME280;47232;47.506;18.936;2024-03-02T12:12:27;97752.47;;;10.48;81.61
61361;BME280;47232;47.506;18.936;2024-03-02T15:36:46;97783.48;;;9.38;85.33
61361;BME280;47232;47.506;18.936;2024-03-02T15:40:36;97782.55;;;9.32;85.45
61361;BME280;47232;47.506;18.936;2024-03-02T15:44:06;97782.89;;;9.28;85.71
61361;BME280;47232;47.506;18.936;2024-03-02T15:47:44;97782.89;;;9.24;85.78
61361;BME280;47232;47.506;18.936;2024-03-02T15:51:10;97780.64;;;9.24;85.75
61361;BME280;47232;47.506;18.936;2024-03-02T15:54:39;97771.52;;;9.23;85.74
61361;BME280;47232;47.506;18.936;2024-03-02T15:58:09;97779.61;;;9.25;86.03
61361;BME280;47232;47.506;18.936;2024-03-02T16:01:53;97780.29;;;9.30;86.07
61361;BME280;47232;47.506;18.936;2024-03-02T16:05:18;97781.09;;;9.32;85.94
61361;BME280;47232;47.506;18.936;2024-03-02T16:08:44;97783.55;;;9.38;85.98
61361;BME280;47232;47.506;18.936;2024-03-02T16:12:11;97780.47;;;9.44;85.89
61361;BME280;47232;47.506;18.936;2024-03-02T16:15:37;97780.14;;;9.49;85.74
61361;BME280;47232;47.506;18.936;2024-03-02T16:19:03;97785.39;;;9.51;85.55
61361;BME280;47232;47.506;18.936;2024-03-02T16:22:29;97787.14;;;9.54;85.64
61361;BME280;47232;47.506;18.936;2024-03-02T16:25:55;97792.83;;;9.58;85.58
61361;BME280;47232;47.506;18.936;2024-03-02T16:29:21;97796.52;;;9.62;85.36
61361;BME280;47232;47.506;18.936;2024-03-02T16:32:47;97797.60;;;9.58;85.08
61361;BME280;47232;47.506;18.936;2024-03-02T16:36:12;97794.70;;;9.56;85.18
61361;BME280;47232;47.506;18.936;2024-03-02T16:39:38;97795.83;;;9.58;85.33
61361;BME280;47232;47.506;18.936;2024-03-02T16:46:44;97792.67;;;9.52;85.08
61361;BME280;47232;47.506;18.936;2024-03-02T16:50:10;97792.41;;;9.47;85.15
61361;BME280;47232;47.506;18.936;2024-03-02T16:53:39;97793.60;;;9.39;85.32
61361;BME280;47232;47.506;18.936;2024-03-02T16:57:05;97797.15;;;9.36;85.57
61361;BME280;47232;47.506;18.936;2024-03-02T17:00:34;97798.48;;;9.35;85.76
61361;BME280;47232;47.506;18.936;2024-03-02T17:04:03;97801.31;;;9.35;85.88
61361;BME280;47232;47.506;18.936;2024-03-02T17:07:26;97804.16;;;9.37;86.00
61361;BME280;47232;47.506;18.936;2024-03-02T17:10:53;97801.85;;;9.35;86.00
61361;BME280;47232;47.506;18.936;2024-03-02T17:14:35;97805.20;;;9.31;86.23
61361;BME280;47232;47.506;18.936;2024-03-02T17:18:11;97810.27;;;9.29;86.35
61361;BME280;47232;47.506;18.936;2024-03-02T17:21:37;97812.77;;;9.30;86.71
61361;BME280;47232;47.506;18.936;2024-03-02T17:25:04;97819.09;;;9.32;86.71
61361;BME280;47232;47.506;18.936;2024-03-02T17:28:43;97819.09;;;9.36;86.86
61361;BME280;47232;47.506;18.936;2024-03-02T17:32:09;97822.40;;;9.38;86.75
61361;BME280;47232;47.506;18.936;2024-03-02T17:35:35;97815.77;;;9.37;86.68
61361;BME280;47232;47.506;18.936;2024-03-02T17:39:02;97817.54;;;9.35;86.84
61361;BME280;47232;47.506;18.936;2024-03-02T17:42:27;97822.20;;;9.35;86.83
61361;BME280;47232;47.506;18.936;2024-03-02T17:45:53;97827.48;;;9.38;87.07
61361;BME280;47232;47.506;18.936;2024-03-02T17:49:19;97825.65;;;9.39;86.89
61361;BME280;47232;47.506;18.936;2024-03-02T17:52:44;97828.50;;;9.39;86.90
61361;BME280;47232;47.506;18.936;2024-03-02T17:56:11;97830.80;;;9.39;86.99
61361;BME280;47232;47.506;18.936;2024-03-02T17:59:36;97824.15;;;9.42;87.17
61361;BME280;47232;47.506;18.936;2024-03-02T18:03:02;97825.58;;;9.45;86.99
61361;BME280;47232;47.506;18.936;2024-03-02T18:06:29;97825.59;;;9.39;86.80
61361;BME280;47232;47.506;18.936;2024-03-02T18:10:01;97826.59;;;9.40;87.04
61361;BME280;47232;47.506;18.936;2024-03-02T18:13:27;97833.98;;;9.41;86.91
61361;BME280;47232;47.506;18.936;2024-03-02T18:23:20;97829.45;;;9.36;86.74
61361;BME280;47232;47.506;18.936;2024-03-02T18:29:39;97829.58;;;9.39;86.77
61361;BME280;47232;47.506;18.936;2024-03-02T18:36:14;97827.55;;;9.38;86.76
61361;BME280;47232;47.506;18.936;2024-03-02T18:39:09;97822.95;;;9.40;86.89
61361;BME280;47232;47.506;18.936;2024-03-02T18:52:26;97826.52;;;9.44;87.02
61361;BME280;47232;47.506;18.936;2024-03-02T20:32:21;97870.16;;;9.48;86.58
61361;BME280;47232;47.506;18.936;2024-03-02T23:00:13;97844.16;;;9.02;86.93
61361;BME280;47232;47.506;18.936;2024-03-02T23:51:52;97854.34;;;9.01;86.51
